Time;durP1;ratioP1;P1;durP2;ratioP2;P2;SDS_P1;SDS_P2;PMS_P1;PMS_P2;Temp;Humidity;BMP_temperature;BMP_pressure;BME280_temperature;BME280_humidity;BME280_pressure;Samples;Min_cycle;Max_cycle;Signal;HPM_P1;HPM_P2
2022/12/29 00:01:27;;;;;;;4.17;2.53;;;11.40;99.90;;;;;;4989582;28;20255;-82
2022/12/29 00:03:54;;;;;;;2.80;2.10;;;11.40;99.90;;;;;;4991065;28;20259;-83
2022/12/29 00:06:22;;;;;;;5.07;2.33;;;11.40;99.90;;;;;;4974698;28;20672;-84
2022/12/29 00:08:49;;;;;;;6.37;2.50;;;11.40;99.90;;;;;;4974400;28;20279;-84
2022/12/29 00:11:19;;;;;;;4.00;1.80;;;11.40;99.90;;;;;;4979975;28;20286;-84
2022/12/29 00:16:32;;;;;;;3.00;1.60;;;11.40;99.90;;;;;;4984653;28;20202;-86
2022/12/29 00:19:01;;;;;;;4.77;2.07;;;11.40;99.90;;;;;;4996567;28;20278;-84
2022/12/29 00:35:29;;;;;;;3.23;2.47;;;11.30;99.90;;;;;;4979484;28;20184;-86
2022/12/29 00:46:14;;;;;;;3.77;2.50;;;11.20;99.90;;;;;;4978743;28;20231;-84
2022/12/29 00:51:26;;;;;;;4.23;2.03;;;11.20;99.90;;;;;;4978125;28;20307;-83
2022/12/29 00:53:55;;;;;;;3.70;2.50;;;11.20;99.90;;;;;;4977960;28;20235;-85
2022/12/29 00:56:22;;;;;;;3.83;2.33;;;11.20;99.90;;;;;;4980439;28;20222;-84
2022/12/29 00:58:49;;;;;;;3.10;2.27;;;11.10;99.90;;;;;;4977079;28;20488;-84
2022/12/29 01:01:16;;;;;;;5.20;2.10;;;11.10;99.90;;;;;;4976764;28;20242;-83
2022/12/29 01:03:44;;;;;;;3.30;2.10;;;11.10;99.90;;;;;;4976212;28;20204;-82
2022/12/29 01:06:12;;;;;;;2.30;1.63;;;11.10;99.90;;;;;;4977056;28;20208;-82
2022/12/29 01:08:39;;;;;;;3.57;2.00;;;11.10;99.90;;;;;;4975908;28;20208;-85
2022/12/29 01:11:08;;;;;;;3.10;1.50;;;11.10;99.90;;;;;;4977683;28;20208;-84
2022/12/29 01:13:36;;;;;;;2.70;2.03;;;11.10;99.90;;;;;;4996328;28;20208;-82
2022/12/29 01:16:04;;;;;;;2.50;1.87;;;11.10;99.90;;;;;;4994627;28;20219;-82
2022/12/29 01:18:31;;;;;;;5.77;1.67;;;11.10;99.90;;;;;;4977718;28;20278;-84
2022/12/29 01:21:01;;;;;;;3.67;1.80;;;11.10;99.90;;;;;;4976318;28;20316;-83
2022/12/29 01:23:29;;;;;;;6.00;2.00;;;11.10;99.90;;;;;;4989721;28;20212;-85
2022/12/29 01:25:56;;;;;;;4.77;2.00;;;11.10;99.90;;;;;;4995372;28;20280;-85
2022/12/29 01:28:25;;;;;;;6.13;2.00;;;11.10;99.90;;;;;;4993912;28;20494;-84
2022/12/29 01:30:52;;;;;;;5.50;2.23;;;11.10;99.90;;;;;;4994290;28;20214;-84
2022/12/29 01:33:19;;;;;;;5.13;2.20;;;11.10;99.90;;;;;;4986395;28;20281;-85
2022/12/29 01:35:46;;;;;;;7.33;2.40;;;11.10;99.90;;;;;;4997002;28;20223;-85
2022/12/29 01:38:13;;;;;;;6.10;2.13;;;11.10;99.90;;;;;;4996779;28;20263;-85
2022/12/29 01:40:46;;;;;;;5.83;2.43;;;11.10;99.90;;;;;;4996000;28;20267;-82
2022/12/29 01:43:15;;;;;;;9.60;2.43;;;11.10;99.90;;;;;;4996896;28;20294;-85
2022/12/29 01:45:48;;;;;;;14.70;3.53;;;11.00;99.90;;;;;;4980952;28;20565;-85
2022/12/29 01:48:16;;;;;;;12.43;2.70;;;11.00;99.90;;;;;;4980305;28;20282;-83
2022/12/29 01:50:49;;;;;;;11.87;2.80;;;11.00;99.90;;;;;;4995982;28;20283;-85
2022/12/29 01:53:19;;;;;;;11.00;2.83;;;10.90;99.90;;;;;;4996226;28;20669;-83
2022/12/29 01:55:50;;;;;;;13.43;2.63;;;10.80;99.90;;;;;;4995343;28;20680;-84
2022/12/29 01:58:20;;;;;;;12.23;2.67;;;10.80;99.90;;;;;;4996439;28;20283;-84
2022/12/29 02:00:49;;;;;;;15.90;3.77;;;10.70;99.90;;;;;;4991201;28;20229;-82
2022/12/29 02:03:17;;;;;;;14.83;2.53;;;10.60;99.90;;;;;;4977135;28;20236;-83
2022/12/29 02:05:49;;;;;;;12.03;3.17;;;10.60;99.90;;;;;;4977265;28;20201;-82
2022/12/29 02:08:16;;;;;;;10.90;2.40;;;10.50;99.90;;;;;;4995794;28;20297;-84
2022/12/29 02:10:45;;;;;;;16.47;3.53;;;10.50;99.90;;;;;;4996499;28;20242;-83
2022/12/29 02:13:12;;;;;;;15.27;3.30;;;10.50;99.90;;;;;;4995208;28;20208;-84
2022/12/29 02:15:53;;;;;;;19.80;3.90;;;10.50;99.90;;;;;;4996103;28;20196;-82
2022/12/29 02:18:31;;;;;;;19.97;3.27;;;10.40;99.90;;;;;;4994804;28;20215;-83
2022/12/29 02:21:33;;;;;;;19.80;3.50;;;10.40;99.90;;;;;;4995648;28;20307;-82
2022/12/29 02:24:37;;;;;;;19.13;3.50;;;10.40;99.90;;;;;;4984789;28;20295;-83
2022/12/29 02:27:41;;;;;;;12.70;3.27;;;10.40;99.90;;;;;;4967195;28;20218;-83
2022/12/29 02:30:17;;;;;;;15.53;3.50;;;10.40;99.90;;;;;;4982323;28;20527;-82
2022/12/29 02:32:52;;;;;;;20.53;3.50;;;10.40;99.90;;;;;;4987361;28;20192;-79
2022/12/29 02:35:30;;;;;;;17.60;4.07;;;10.40;99.90;;;;;;4990215;28;20574;-80
2022/12/29 02:38:05;;;;;;;11.47;3.03;;;10.40;99.90;;;;;;4995064;28;20204;-84
2022/12/29 02:40:39;;;;;;;20.13;3.30;;;10.40;99.90;;;;;;4993228;28;20249;-81
2022/12/29 02:43:13;;;;;;;14.47;3.10;;;10.40;99.90;;;;;;4995035;28;20210;-83
2022/12/29 02:45:48;;;;;;;14.07;3.27;;;10.40;99.90;;;;;;4994315;28;20191;-81
2022/12/29 02:48:22;;;;;;;16.90;3.43;;;10.40;99.90;;;;;;4994579;28;20680;-84
2022/12/29 02:50:55;;;;;;;17.53;4.00;;;10.40;99.90;;;;;;4985894;28;20215;-83
2022/12/29 02:56:05;;;;;;;19.80;3.80;;;10.30;99.90;;;;;;4979280;28;20251;-79
2022/12/29 02:58:32;;;;;;;23.80;4.77;;;10.30;99.90;;;;;;4994172;28;20299;-82
2022/12/29 03:01:17;;;;;;;19.77;4.70;;;10.20;99.90;;;;;;4992552;28;20228;-81
2022/12/29 03:03:57;;;;;;;21.80;4.30;;;10.20;99.90;;;;;;4974679;28;20228;-81
2022/12/29 03:06:36;;;;;;;22.70;4.13;;;10.10;99.90;;;;;;4974261;28;20247;-82
2022/12/29 03:09:12;;;;;;;24.03;4.43;;;10.10;99.90;;;;;;4992274;28;20211;-82
2022/12/29 03:17:28;;;;;;;27.63;5.57;;;10.00;99.90;;;;;;4979988;28;20291;-80
2022/12/29 03:20:02;;;;;;;27.27;5.27;;;10.00;99.90;;;;;;4993820;28;20683;-79
2022/12/29 03:22:33;;;;;;;25.27;5.63;;;10.00;99.90;;;;;;4994533;28;20207;-83
2022/12/29 03:25:04;;;;;;;25.70;4.87;;;10.00;99.90;;;;;;4975760;28;20205;-84
2022/12/29 03:27:37;;;;;;;24.60;5.13;;;10.00;99.90;;;;;;4974519;28;20199;-82
2022/12/29 03:30:08;;;;;;;25.33;5.20;;;10.00;99.90;;;;;;4991963;28;20582;-83
2022/12/29 03:32:39;;;;;;;26.03;5.10;;;10.00;99.90;;;;;;4994132;28;20342;-81
2022/12/29 03:35:12;;;;;;;20.93;4.70;;;10.00;99.90;;;;;;4992312;28;20214;-82
2022/12/29 03:37:42;;;;;;;20.43;5.03;;;10.00;99.90;;;;;;4993477;28;20228;-82
2022/12/29 03:40:10;;;;;;;23.37;5.63;;;9.90;99.90;;;;;;4981687;28;20216;-80
2022/12/29 03:42:39;;;;;;;26.73;5.07;;;10.00;99.90;;;;;;4973599;28;20319;-81
2022/12/29 03:45:08;;;;;;;29.60;6.47;;;10.00;99.90;;;;;;4977390;28;20200;-82
2022/12/29 03:47:35;;;;;;;32.83;6.33;;;10.00;99.90;;;;;;4993715;28;20206;-80
2022/12/29 03:50:02;;;;;;;25.47;5.57;;;10.00;99.90;;;;;;4991144;28;20306;-81
2022/12/29 03:52:30;;;;;;;34.47;7.07;;;10.10;99.90;;;;;;4973797;28;20244;-80
2022/12/29 03:54:57;;;;;;;27.87;6.83;;;10.10;99.90;;;;;;4974175;28;20228;-82
2022/12/29 03:57:24;;;;;;;27.70;5.70;;;10.10;99.90;;;;;;4987755;28;20773;-83
2022/12/29 03:59:51;;;;;;;28.50;6.07;;;10.10;99.90;;;;;;4993459;28;20270;-82
2022/12/29 04:02:18;;;;;;;27.03;5.53;;;10.10;99.90;;;;;;4982152;28;20311;-81
2022/12/29 04:04:45;;;;;;;26.23;4.80;;;10.10;99.90;;;;;;4973847;28;20559;-82
2022/12/29 04:07:12;;;;;;;32.33;5.70;;;10.10;99.90;;;;;;4975559;28;20291;-82
2022/12/29 04:09:40;;;;;;;20.50;4.00;;;10.10;99.90;;;;;;4973998;28;20290;-82
2022/12/29 04:12:07;;;;;;;21.40;5.20;;;10.10;99.90;;;;;;4979808;28;20208;-82
2022/12/29 04:14:34;;;;;;;27.97;4.77;;;10.10;99.90;;;;;;4993337;28;20202;-82
2022/12/29 04:17:01;;;;;;;19.50;4.70;;;10.10;99.90;;;;;;4993129;28;20283;-83
2022/12/29 04:19:27;;;;;;;19.40;4.37;;;10.00;99.90;;;;;;4991813;28;20207;-83
2022/12/29 04:21:54;;;;;;;20.93;5.00;;;10.00;99.90;;;;;;4992819;28;20223;-83
2022/12/29 04:24:21;;;;;;;27.17;5.00;;;10.00;99.90;;;;;;4981062;28;20608;-81
2022/12/29 04:26:50;;;;;;;24.90;4.77;;;10.00;99.90;;;;;;4973546;28;20189;-84
2022/12/29 04:29:17;;;;;;;14.70;4.33;;;10.10;99.90;;;;;;4979091;28;20208;-82
2022/12/29 04:31:43;;;;;;;23.67;4.43;;;10.10;99.90;;;;;;4992879;28;20214;-80
2022/12/29 04:34:10;;;;;;;19.70;4.47;;;10.10;99.90;;;;;;4991563;28;20192;-80
2022/12/29 04:36:39;;;;;;;28.30;4.87;;;10.10;99.90;;;;;;4992671;28;20203;-83
2022/12/29 04:39:06;;;;;;;23.23;5.80;;;10.10;99.90;;;;;;4991816;28;20202;-80
2022/12/29 04:41:33;;;;;;;21.27;5.30;;;10.00;99.90;;;;;;4991835;28;20262;-80
2022/12/29 04:44:02;;;;;;;25.37;5.27;;;10.00;99.90;;;;;;4993632;28;20297;-82
2022/12/29 04:46:28;;;;;;;24.73;4.67;;;10.00;99.90;;;;;;4992186;28;20601;-81
2022/12/29 04:48:55;;;;;;;29.30;6.67;;;9.90;99.90;;;;;;4993333;28;20188;-83
2022/12/29 04:51:22;;;;;;;31.70;6.07;;;9.90;99.90;;;;;;4987529;28;20276;-80
2022/12/29 04:53:49;;;;;;;31.47;6.97;;;9.90;99.90;;;;;;4973529;28;20227;-84
2022/12/29 04:56:16;;;;;;;22.73;4.90;;;9.90;99.90;;;;;;4975476;28;20666;-81
2022/12/29 04:58:43;;;;;;;32.03;5.73;;;9.90;99.90;;;;;;4972656;28;20220;-82
2022/12/29 05:01:11;;;;;;;30.30;7.73;;;9.90;99.90;;;;;;4972950;28;20587;-82
2022/12/29 05:03:38;;;;;;;25.83;6.87;;;9.90;99.90;;;;;;4974529;28;20592;-80
2022/12/29 05:06:05;;;;;;;28.73;5.80;;;9.90;99.90;;;;;;4976729;28;20291;-81
2022/12/29 05:08:32;;;;;;;23.23;5.23;;;9.90;99.90;;;;;;4983745;28;20232;-81
2022/12/29 05:10:59;;;;;;;23.83;6.10;;;9.90;99.90;;;;;;4996473;28;20287;-82
2022/12/29 05:13:26;;;;;;;27.93;7.23;;;9.90;99.90;;;;;;4992714;28;20287;-81
2022/12/29 05:15:54;;;;;;;30.73;5.93;;;9.80;99.90;;;;;;4976082;28;20312;-82
2022/12/29 05:18:22;;;;;;;30.47;6.77;;;9.80;99.90;;;;;;4976582;28;20209;-82
2022/12/29 05:20:49;;;;;;;29.97;6.10;;;9.90;99.90;;;;;;4976615;28;20295;-82
2022/12/29 05:23:17;;;;;;;23.73;5.00;;;9.90;99.90;;;;;;4976004;28;20227;-83
2022/12/29 05:25:45;;;;;;;31.13;5.83;;;9.80;99.90;;;;;;4991117;28;20299;-81
2022/12/29 05:28:13;;;;;;;25.70;5.40;;;9.80;99.90;;;;;;4996165;28;20196;-81
2022/12/29 05:30:40;;;;;;;25.40;5.77;;;9.80;99.90;;;;;;4989441;28;20218;-82
2022/12/29 05:33:07;;;;;;;27.17;7.10;;;9.80;99.90;;;;;;4995837;28;20196;-82
2022/12/29 05:35:35;;;;;;;22.57;5.00;;;9.70;99.90;;;;;;4994805;28;20238;-83
2022/12/29 05:38:02;;;;;;;28.07;6.23;;;9.70;99.90;;;;;;4998546;28;20246;-81
2022/12/29 05:40:29;;;;;;;28.17;6.00;;;9.70;99.90;;;;;;4992908;28;20315;-82
2022/12/29 05:42:56;;;;;;;32.83;6.07;;;9.70;99.90;;;;;;4997563;28;20306;-82
2022/12/29 05:45:23;;;;;;;23.97;5.03;;;9.70;99.90;;;;;;4997859;28;20211;-82
2022/12/29 05:47:50;;;;;;;31.27;5.90;;;9.70;99.90;;;;;;4995334;28;20291;-82
2022/12/29 05:50:17;;;;;;;25.07;6.33;;;9.70;99.90;;;;;;4995852;28;20263;-81
2022/12/29 05:52:45;;;;;;;28.17;6.00;;;9.80;99.90;;;;;;4994338;28;20291;-83
2022/12/29 05:55:12;;;;;;;31.23;6.30;;;9.70;99.90;;;;;;4995066;28;20238;-82
2022/12/29 05:57:40;;;;;;;33.70;6.60;;;9.70;99.90;;;;;;4987491;28;20209;-82
2022/12/29 06:00:08;;;;;;;30.43;5.73;;;9.70;99.90;;;;;;4975279;28;20319;-84
2022/12/29 06:02:35;;;;;;;36.53;7.53;;;9.70;99.90;;;;;;4975927;28;20255;-81
2022/12/29 06:05:02;;;;;;;31.07;8.07;;;9.70;99.90;;;;;;4992598;28;20680;-82
2022/12/29 06:07:29;;;;;;;30.03;7.67;;;9.70;99.90;;;;;;4994876;28;20287;-83
2022/12/29 06:09:57;;;;;;;43.60;7.23;;;9.70;99.90;;;;;;4993680;28;20286;-83
2022/12/29 06:12:24;;;;;;;31.20;6.17;;;9.70;99.90;;;;;;4994921;28;20267;-82
2022/12/29 06:14:51;;;;;;;37.27;6.00;;;9.70;99.90;;;;;;4994317;28;20200;-82
2022/12/29 06:17:18;;;;;;;35.57;8.40;;;9.70;99.90;;;;;;4994249;28;20300;-82
2022/12/29 06:19:45;;;;;;;28.67;7.33;;;9.60;99.90;;;;;;4980786;28;20205;-84
2022/12/29 06:22:13;;;;;;;31.90;6.73;;;9.60;99.90;;;;;;4975624;28;20601;-83
2022/12/29 06:24:40;;;;;;;28.10;6.87;;;9.70;99.90;;;;;;4975486;28;20307;-81
2022/12/29 06:27:08;;;;;;;26.30;6.23;;;9.60;99.90;;;;;;4994623;28;20285;-84
2022/12/29 06:29:36;;;;;;;36.63;6.93;;;9.70;99.90;;;;;;4994951;28;20206;-82
2022/12/29 06:32:04;;;;;;;29.20;4.80;;;9.70;99.90;;;;;;4977389;28;20200;-81
2022/12/29 06:34:31;;;;;;;32.90;5.83;;;9.70;99.90;;;;;;4975420;28;20911;-81
2022/12/29 06:36:58;;;;;;;30.53;5.97;;;9.70;99.90;;;;;;4976205;28;20215;-83
2022/12/29 06:39:25;;;;;;;22.50;4.93;;;9.80;99.90;;;;;;4976199;28;20359;-83
2022/12/29 06:41:53;;;;;;;31.50;5.60;;;9.80;99.90;;;;;;4983655;28;20272;-84
2022/12/29 06:44:22;;;;;;;29.40;6.77;;;9.70;99.90;;;;;;4995333;28;20192;-83
2022/12/29 06:46:50;;;;;;;30.43;6.80;;;9.70;99.90;;;;;;4993083;28;20279;-81
2022/12/29 06:49:17;;;;;;;35.63;6.20;;;9.70;99.90;;;;;;4994508;28;20216;-83
2022/12/29 06:51:43;;;;;;;34.27;7.57;;;9.70;99.90;;;;;;4994289;28;20211;-83
2022/12/29 06:54:10;;;;;;;42.93;6.67;;;9.70;99.90;;;;;;4992013;28;20212;-82
2022/12/29 06:56:37;;;;;;;31.43;6.53;;;9.70;99.90;;;;;;4994249;28;20203;-83
2022/12/29 06:59:04;;;;;;;26.50;6.90;;;9.60;99.90;;;;;;4983691;28;20239;-81
2022/12/29 07:01:34;;;;;;;30.67;6.47;;;9.60;99.90;;;;;;4974073;28;20228;-81
2022/12/29 07:04:01;;;;;;;45.00;8.47;;;9.60;99.90;;;;;;4979771;28;20232;-83
2022/12/29 07:06:28;;;;;;;34.10;8.77;;;9.60;99.90;;;;;;4974737;28;20209;-81
2022/12/29 07:08:57;;;;;;;35.37;6.73;;;9.60;99.90;;;;;;4987253;28;20294;-81
2022/12/29 07:11:24;;;;;;;44.57;7.87;;;9.60;99.90;;;;;;4991897;28;20208;-83
2022/12/29 07:13:51;;;;;;;26.90;6.60;;;9.60;99.90;;;;;;4984798;28;20213;-83
2022/12/29 07:16:18;;;;;;;34.73;7.30;;;9.50;99.90;;;;;;4993535;28;20204;-81
2022/12/29 07:18:47;;;;;;;31.20;6.13;;;9.50;99.90;;;;;;4983625;28;20259;-82
2022/12/29 07:21:14;;;;;;;44.37;7.70;;;9.50;99.90;;;;;;4986624;28;20210;-81
2022/12/29 07:23:40;;;;;;;37.17;7.93;;;9.60;99.90;;;;;;4993579;28;20322;-81
2022/12/29 07:26:10;;;;;;;40.27;8.90;;;9.60;99.90;;;;;;4984553;28;20535;-82
2022/12/29 07:28:38;;;;;;;39.27;7.43;;;9.60;99.90;;;;;;4973776;28;20296;-81
2022/12/29 07:31:06;;;;;;;34.07;6.70;;;9.60;99.90;;;;;;4977304;28;20525;-81
2022/12/29 07:33:33;;;;;;;40.80;8.20;;;9.70;99.90;;;;;;4993576;28;20196;-85
2022/12/29 07:36:01;;;;;;;30.47;8.00;;;9.70;99.90;;;;;;4991344;28;20445;-82
2022/12/29 07:38:29;;;;;;;31.67;7.00;;;9.80;99.90;;;;;;4973591;28;20219;-82
2022/12/29 07:40:59;;;;;;;34.93;6.67;;;9.80;99.90;;;;;;4972919;28;20235;-81
2022/12/29 07:43:26;;;;;;;30.67;6.77;;;9.80;99.90;;;;;;4991570;28;20231;-82
2022/12/29 07:45:52;;;;;;;33.40;6.90;;;9.80;99.90;;;;;;4993761;28;20283;-80
2022/12/29 07:48:19;;;;;;;42.00;8.50;;;9.80;99.90;;;;;;4992246;28;20200;-82
2022/12/29 07:50:46;;;;;;;33.53;8.07;;;9.80;99.90;;;;;;4992771;28;20222;-81
2022/12/29 07:53:15;;;;;;;34.87;6.80;;;9.80;99.90;;;;;;4989087;28;20625;-82
2022/12/29 07:55:42;;;;;;;36.80;7.00;;;9.80;99.90;;;;;;4972867;28;20607;-81
2022/12/29 07:58:09;;;;;;;43.00;8.60;;;9.80;99.90;;;;;;4984926;28;20303;-81
2022/12/29 08:00:37;;;;;;;31.53;7.07;;;9.80;99.90;;;;;;4993185;28;20577;-82
2022/12/29 08:03:05;;;;;;;39.90;7.83;;;9.80;99.90;;;;;;4992564;28;20224;-84
2022/12/29 08:05:32;;;;;;;32.07;7.63;;;9.80;99.90;;;;;;4991921;28;20212;-87
2022/12/29 08:07:59;;;;;;;31.93;7.90;;;9.80;99.90;;;;;;4992956;28;20219;-83
2022/12/29 08:10:27;;;;;;;39.30;6.97;;;9.80;99.90;;;;;;4980993;28;20211;-84
2022/12/29 08:12:54;;;;;;;35.07;7.40;;;9.80;99.90;;;;;;4972641;28;20609;-82
2022/12/29 08:15:21;;;;;;;37.63;6.27;;;9.90;99.90;;;;;;4978048;28;20207;-82
2022/12/29 08:17:48;;;;;;;25.13;6.73;;;9.90;99.90;;;;;;4992137;28;20210;-81
2022/12/29 08:20:15;;;;;;;35.93;7.23;;;9.90;99.90;;;;;;4990222;28;20208;-81
2022/12/29 08:22:42;;;;;;;32.70;7.10;;;10.00;99.90;;;;;;4973095;28;20311;-80
2022/12/29 08:25:10;;;;;;;27.33;6.00;;;10.00;99.90;;;;;;4972341;28;20200;-80
2022/12/29 08:27:38;;;;;;;32.63;6.63;;;10.00;99.90;;;;;;4987004;28;20619;-81
2022/12/29 08:30:06;;;;;;;26.20;6.00;;;9.90;99.90;;;;;;4989963;28;20294;-79
2022/12/29 08:32:34;;;;;;;32.23;6.03;;;9.90;99.90;;;;;;4985531;28;20231;-80
2022/12/29 08:35:00;;;;;;;27.90;6.50;;;9.90;99.90;;;;;;4994255;28;20302;-81
2022/12/29 08:37:27;;;;;;;24.43;5.67;;;9.90;99.90;;;;;;5001566;28;20211;-82
2022/12/29 08:39:54;;;;;;;27.53;7.00;;;9.90;99.90;;;;;;4988010;28;20300;-86
2022/12/29 08:42:21;;;;;;;28.77;6.70;;;9.90;99.90;;;;;;4989728;28;20342;-82
2022/12/29 08:44:49;;;;;;;32.90;5.80;;;9.80;99.90;;;;;;4977608;28;20669;-83
2022/12/29 08:47:16;;;;;;;34.93;6.33;;;9.80;99.90;;;;;;4977971;28;20224;-87
2022/12/29 08:49:43;;;;;;;33.23;6.00;;;9.80;99.90;;;;;;4978931;28;20593;-83
2022/12/29 08:52:10;;;;;;;38.27;7.73;;;9.80;99.90;;;;;;4977913;28;20782;-84
2022/12/29 08:54:37;;;;;;;31.83;6.40;;;9.70;99.90;;;;;;4992178;28;20267;-82
2022/12/29 08:57:04;;;;;;;33.63;8.13;;;9.70;99.90;;;;;;4996914;28;20932;-82
2022/12/29 08:59:31;;;;;;;36.33;6.60;;;9.70;99.90;;;;;;4980991;28;20494;-85
2022/12/29 09:02:00;;;;;;;36.50;6.73;;;9.70;99.90;;;;;;4977908;28;20291;-83
2022/12/29 09:04:27;;;;;;;33.93;6.50;;;9.70;99.90;;;;;;4978594;28;20356;-84
2022/12/29 09:06:54;;;;;;;37.30;7.50;;;9.70;99.90;;;;;;4977764;28;20220;-84
2022/12/29 09:09:21;;;;;;;33.20;9.43;;;9.70;99.90;;;;;;4977953;28;20669;-85
2022/12/29 09:11:48;;;;;;;37.63;7.00;;;9.70;99.90;;;;;;4977790;28;20279;-84
2022/12/29 09:14:15;;;;;;;49.20;9.17;;;9.80;99.90;;;;;;4996570;28;20279;-84
2022/12/29 09:19:28;;;;;;;34.07;8.87;;;9.80;99.90;;;;;;4995822;28;20281;-87
2022/12/29 09:21:54;;;;;;;37.57;9.47;;;9.80;99.90;;;;;;4995393;28;20590;-88
2022/12/29 09:24:21;;;;;;;33.87;8.30;;;9.80;99.90;;;;;;4996740;28;20522;-86
2022/12/29 09:26:54;;;;;;;41.80;7.80;;;9.80;99.90;;;;;;4996305;28;20215;-82
2022/12/29 09:29:26;;;;;;;46.63;9.40;;;9.80;99.90;;;;;;4996404;28;20632;-85
2022/12/29 09:32:00;;;;;;;38.33;9.50;;;9.80;99.90;;;;;;4996904;28;20204;-87
2022/12/29 09:34:39;;;;;;;45.73;8.70;;;9.80;99.90;;;;;;4996590;28;20215;-86
2022/12/29 09:37:06;;;;;;;48.63;9.33;;;9.80;99.90;;;;;;5006899;28;20188;-86
2022/12/29 09:39:40;;;;;;;43.10;9.70;;;9.80;99.90;;;;;;4989204;28;20611;-86
2022/12/29 09:42:23;;;;;;;54.33;9.33;;;9.90;99.90;;;;;;4996639;28;20294;-85
2022/12/29 09:45:02;;;;;;;55.73;10.17;;;9.90;99.90;;;;;;4990393;28;20275;-81
2022/12/29 09:47:30;;;;;;;47.57;10.23;;;9.90;99.90;;;;;;4977032;28;20204;-85
2022/12/29 09:50:04;;;;;;;47.03;10.47;;;9.90;99.90;;;;;;4978087;28;20217;-85
2022/12/29 09:52:36;;;;;;;38.03;9.13;;;9.90;99.90;;;;;;4978813;28;20203;-85
2022/12/29 09:55:05;;;;;;;53.23;10.17;;;10.00;99.90;;;;;;4995803;28;20224;-84
2022/12/29 09:57:44;;;;;;;51.93;10.90;;;10.00;99.90;;;;;;4997004;28;20200;-85
2022/12/29 10:00:16;;;;;;;47.33;9.63;;;10.00;99.90;;;;;;5008294;28;20238;-85
2022/12/29 10:02:47;;;;;;;49.83;10.37;;;9.90;99.90;;;;;;4994618;28;20562;-83
2022/12/29 10:05:27;;;;;;;42.97;9.77;;;9.90;99.90;;;;;;4996001;28;20720;-85
2022/12/29 10:08:06;;;;;;;31.00;7.97;;;9.90;99.90;;;;;;4979411;28;20216;-86
2022/12/29 10:10:39;;;;;;;25.67;7.83;;;9.80;99.90;;;;;;4976892;28;20200;-86
2022/12/29 10:13:21;;;;;;;23.10;5.27;;;9.80;99.90;;;;;;4987473;28;20207;-84
2022/12/29 10:15:58;;;;;;;30.43;6.53;;;9.80;99.90;;;;;;4995519;28;20204;-84
2022/12/29 10:18:53;;;;;;;31.80;6.83;;;9.80;99.90;;;;;;4993755;28;20203;-83
2022/12/29 10:21:32;;;;;;;34.70;8.13;;;9.80;99.90;;;;;;4995781;28;20475;-85
2022/12/29 10:24:03;;;;;;;30.67;6.80;;;9.90;99.90;;;;;;4986281;28;20318;-83
2022/12/29 10:26:34;;;;;;;20.07;4.97;;;9.90;99.90;;;;;;4976209;28;20291;-82
2022/12/29 10:29:06;;;;;;;23.40;5.40;;;9.90;99.90;;;;;;4984493;28;20279;-83
2022/12/29 10:31:39;;;;;;;22.40;5.13;;;9.90;99.90;;;;;;4994842;28;20507;-84
2022/12/29 10:34:16;;;;;;;18.37;5.70;;;10.00;99.90;;;;;;4977594;28;20266;-84
2022/12/29 10:36:49;;;;;;;21.90;5.43;;;10.00;99.90;;;;;;4995510;28;20528;-86
2022/12/29 10:39:22;;;;;;;18.37;4.73;;;10.00;99.90;;;;;;4994095;28;20204;-86
2022/12/29 10:41:54;;;;;;;20.43;4.50;;;10.00;99.90;;;;;;4994922;28;20710;-85
2022/12/29 10:44:21;;;;;;;21.93;5.23;;;9.90;99.90;;;;;;4993279;28;20223;-85
2022/12/29 10:46:56;;;;;;;24.83;6.20;;;9.90;99.90;;;;;;4974077;28;20200;-85
2022/12/29 10:49:27;;;;;;;27.77;6.57;;;10.00;99.90;;;;;;5003037;28;20242;-85
2022/12/29 10:51:59;;;;;;;21.67;5.80;;;10.00;99.90;;;;;;4996967;28;20215;-86
2022/12/29 10:54:32;;;;;;;24.50;6.47;;;10.10;99.90;;;;;;4994435;28;20536;-85
2022/12/29 10:57:04;;;;;;;25.80;6.33;;;10.10;99.90;;;;;;4994622;28;20216;-85
2022/12/29 10:59:35;;;;;;;19.07;5.90;;;10.20;99.90;;;;;;4994378;28;20287;-84
2022/12/29 11:02:22;;;;;;;23.03;6.30;;;10.20;99.90;;;;;;4985569;28;20624;-86
2022/12/29 11:04:58;;;;;;;24.87;6.70;;;10.30;99.90;;;;;;4975462;28;20252;-84
2022/12/29 11:07:32;;;;;;;23.07;5.80;;;10.30;99.90;;;;;;4974894;28;20287;-83
2022/12/29 11:10:18;;;;;;;24.83;5.57;;;10.40;99.90;;;;;;4974569;28;20298;-83
2022/12/29 11:12:58;;;;;;;16.37;5.07;;;10.30;99.90;;;;;;5001574;28;20211;-84
2022/12/29 11:15:25;;;;;;;17.23;5.40;;;10.30;99.90;;;;;;5012997;28;20214;-83
2022/12/29 11:17:53;;;;;;;16.37;4.80;;;10.40;99.90;;;;;;5002874;28;20247;-81
2022/12/29 11:20:30;;;;;;;20.83;6.07;;;10.40;99.90;;;;;;4993136;28;20518;-80
2022/12/29 11:22:59;;;;;;;21.97;5.23;;;10.40;99.90;;;;;;4992414;28;20802;-83
2022/12/29 11:25:26;;;;;;;20.43;4.33;;;10.40;99.90;;;;;;4993772;28;20255;-82
2022/12/29 11:27:57;;;;;;;18.23;4.57;;;10.30;99.90;;;;;;4993510;28;20235;-83
2022/12/29 11:30:26;;;;;;;15.33;3.90;;;10.30;99.90;;;;;;4993153;28;20321;-81
2022/12/29 11:32:55;;;;;;;14.73;3.83;;;10.30;99.90;;;;;;4992403;28;20211;-82
2022/12/29 11:35:32;;;;;;;12.50;4.10;;;10.30;99.90;;;;;;4990822;28;20216;-80
2022/12/29 11:38:02;;;;;;;20.20;5.00;;;10.30;99.90;;;;;;4993024;28;20207;-84
2022/12/29 11:40:30;;;;;;;14.67;3.50;;;10.30;99.90;;;;;;4993300;28;20232;-78
2022/12/29 11:42:59;;;;;;;17.90;3.40;;;10.40;99.90;;;;;;4993060;28;20202;-82
2022/12/29 11:45:28;;;;;;;14.30;3.13;;;10.40;99.90;;;;;;4993976;28;20289;-82
2022/12/29 11:47:59;;;;;;;25.30;3.83;;;10.50;99.90;;;;;;4993774;28;20250;-82
2022/12/29 11:50:29;;;;;;;12.90;3.37;;;10.50;99.90;;;;;;4981347;28;20711;-84
2022/12/29 11:53:02;;;;;;;16.57;3.27;;;10.50;99.90;;;;;;4974268;28;20201;-81
2022/12/29 11:55:30;;;;;;;17.97;3.73;;;10.50;99.90;;;;;;4990917;28;20209;-81
2022/12/29 11:58:01;;;;;;;16.17;3.37;;;10.50;99.90;;;;;;5013470;28;20233;-82
2022/12/29 12:00:29;;;;;;;28.33;4.90;;;10.40;99.90;;;;;;4980462;28;20225;-83
2022/12/29 12:03:01;;;;;;;22.70;5.60;;;10.50;99.90;;;;;;4973570;28;20197;-79
2022/12/29 12:05:38;;;;;;;26.40;5.17;;;10.50;99.90;;;;;;4978444;28;20294;-83
2022/12/29 12:08:12;;;;;;;23.83;5.33;;;10.50;99.90;;;;;;4993106;28;20673;-83
2022/12/29 12:10:45;;;;;;;21.10;5.53;;;10.60;99.90;;;;;;4993409;28;20262;-83
2022/12/29 12:13:26;;;;;;;24.87;5.50;;;10.70;99.90;;;;;;4991651;28;20604;-80
2022/12/29 12:16:00;;;;;;;22.87;5.30;;;10.70;99.90;;;;;;4991515;28;20568;-82
2022/12/29 12:18:38;;;;;;;26.97;5.50;;;10.80;99.90;;;;;;4973950;28;20621;-81
2022/12/29 12:21:13;;;;;;;22.03;5.77;;;10.80;99.90;;;;;;4974282;28;20201;-78
2022/12/29 12:23:55;;;;;;;24.27;5.57;;;10.90;99.90;;;;;;4974709;28;20203;-81
2022/12/29 12:26:29;;;;;;;22.23;4.70;;;10.90;99.90;;;;;;4974014;28;20184;-83
2022/12/29 12:29:00;;;;;;;19.33;5.10;;;10.80;99.90;;;;;;4974797;28;20216;-83
2022/12/29 12:31:45;;;;;;;23.23;4.77;;;10.80;99.90;;;;;;4973348;28;20291;-82
2022/12/29 12:34:18;;;;;;;19.90;4.03;;;10.80;99.90;;;;;;4990395;28;20200;-80
2022/12/29 12:37:20;;;;;;;20.30;4.93;;;10.80;99.90;;;;;;4993822;28;20308;-85
2022/12/29 12:40:07;;;;;;;20.73;4.73;;;10.80;99.90;;;;;;4974542;28;20214;-84
2022/12/29 12:42:44;;;;;;;24.47;5.43;;;10.70;99.90;;;;;;4975940;28;20213;-85
2022/12/29 12:45:50;;;;;;;22.63;5.40;;;10.70;99.90;;;;;;4986199;28;20258;-83
2022/12/29 12:48:43;;;;;;;13.37;3.57;;;10.70;99.90;;;;;;4996669;28;20708;-90
2022/12/29 12:51:16;;;;;;;15.13;3.13;;;10.70;99.90;;;;;;4985426;28;20258;-85
2022/12/29 12:53:56;;;;;;;22.97;4.43;;;10.70;99.90;;;;;;4995532;28;20203;-86
2022/12/29 12:56:43;;;;;;;19.70;4.97;;;10.70;99.90;;;;;;4993968;28;20478;-84
2022/12/29 12:59:33;;;;;;;17.23;3.93;;;10.70;99.90;;;;;;4993171;28;20208;-82
2022/12/29 13:02:09;;;;;;;12.83;3.73;;;10.80;99.90;;;;;;4991994;28;20204;-83
2022/12/29 13:04:58;;;;;;;15.07;3.23;;;10.80;99.90;;;;;;4992776;28;20215;-81
2022/12/29 13:07:37;;;;;;;10.67;2.87;;;10.70;99.90;;;;;;4991770;28;20216;-80
2022/12/29 13:10:23;;;;;;;17.07;3.60;;;10.70;99.90;;;;;;4992126;28;20274;-79
2022/12/29 13:12:59;;;;;;;20.40;3.50;;;10.70;99.90;;;;;;4973346;28;20204;-80
2022/12/29 13:15:42;;;;;;;15.33;3.43;;;10.70;99.90;;;;;;4972813;28;20307;-80
2022/12/29 13:18:17;;;;;;;22.47;3.90;;;10.70;99.90;;;;;;4982473;28;20272;-78
2022/12/29 13:20:50;;;;;;;20.20;3.97;;;10.70;99.90;;;;;;4991348;28;20196;-81
2022/12/29 13:23:26;;;;;;;16.13;3.67;;;10.70;99.90;;;;;;4981265;28;20301;-81
2022/12/29 13:26:03;;;;;;;21.70;3.93;;;10.70;99.90;;;;;;4975509;28;20216;-80
2022/12/29 13:28:39;;;;;;;22.60;3.93;;;10.60;99.90;;;;;;4980792;28;20626;-83
2022/12/29 13:31:13;;;;;;;21.40;5.47;;;10.60;99.90;;;;;;4995631;28;20227;-80
2022/12/29 13:33:49;;;;;;;14.90;3.50;;;10.50;99.90;;;;;;4994405;28;20376;-81
2022/12/29 13:36:24;;;;;;;18.10;4.07;;;10.50;99.90;;;;;;4995119;28;20266;-81
2022/12/29 13:38:57;;;;;;;13.93;5.47;;;10.50;99.90;;;;;;4995315;28;20192;-83
2022/12/29 13:41:31;;;;;;;21.03;5.07;;;10.50;99.90;;;;;;4994786;28;20316;-82